• Join FlightAware (Why Join?)
  • Login
  • US Flag 
10:30PM EST


 

Airport Tracker/Info


-or-


 

Live Flight TrackerFlight Track Log ✈ N680AN ✈ 20-Apr-2013 ✈ KMIA - KMCO

Flight Track Log - Related Links

Times and Time Zones

All times are in EDT time to prevent confusion due to time zone crossing. See the N680AN flight status page for this flight to view local times or setup timezone preferences in your user account.

Time Position Orientation Groundspeed Altitude Reporting Facility
EDT Latitude Longitude Course Direction KTS MPH feet Rate Location/Type
07:11AM 25.7983 -80.2697 336° Northwest 170 196 1,100  Level Miami Center
07:12AM 25.8053 -80.2356 77° East 187 215 2,600 2,580 Climbing Miami Center
07:13AM 25.8150 -80.1828 78° East 232 267 4,500 2,940 Climbing Miami Center
07:13AM 25.8258 -80.1644 57° Northeast 259 298 5,900 2,280 Climbing Miami Center
07:14AM 26.0506 -80.3724 343° North  Level FlightAware Approximate
07:14AM 25.8758 -80.1681 356° North 274 315 6,800  Level Miami Center
07:14AM 25.8942 -80.1872 317° Northwest 283 326 7,100 300 Climbing Miami Center
07:15AM 26.1403 -80.4023 343° North  Level FlightAware Approximate
07:15AM 25.9436 -80.2139 334° Northwest 281 323 7,100  Level Miami Center
07:16AM 26.2306 -80.4236 336° Northwest  Level FlightAware Approximate
07:16AM 26.0031 -80.2619 324° Northwest 292 336 10,300  Level Miami Center
07:17AM 26.3160 -80.4663 336° Northwest  Level FlightAware Approximate
07:17AM 26.0833 -80.3172 328° Northwest 313 360 12,500  Level Miami Center
07:18AM 26.1675 -80.3822 325° Northwest 348 400 15,400 3,000 Climbing Miami Center
07:19AM 26.2619 -80.4453 329° Northwest 387 445 18,500 1,800 Climbing Miami Center
07:20AM 26.3631 -80.4947 336° Northwest 393 452 19,000 240 Climbing Miami Center
07:21AM 26.4581 -80.5394 337° Northwest 401 461 19,000  Level Miami Center
07:22AM 26.5714 -80.5939 337° Northwest 394 453 19,000  Level Miami Center
07:23AM 26.6600 -80.6386 336° Northwest 394 453 19,000  Level Miami Center
07:24AM 26.7758 -80.6889 339° North 394 453 19,000  Level Miami Center
07:25AM 26.8708 -80.7292 339° North 394 453 19,000  Level Miami Center
07:26AM 26.9783 -80.7656 343° North 394 453 19,000  Level Miami Center
07:27AM 27.0839 -80.8039 342° North 394 453 19,000  Level Miami Center
07:28AM 27.1914 -80.8428 342° North 400 460 19,000  Level Miami Center
07:29AM 27.2989 -80.8792 343° North 400 460 19,000  Level Miami Center
07:30AM 27.4042 -80.9178 342° North 400 460 19,000  Level Miami Center
07:31AM 27.5097 -80.9567 342° North 400 460 19,000 -2,040 Level Miami Center
07:33AM 27.7500 -81.0500 341° North 420 483 12,600 -2,580 Descending Orlando TRACON
07:34AM 27.8500 -81.0833 344° North 338 389 11,000 -840 Descending Orlando TRACON
07:35AM 27.9333 -81.1167 341° North 283 326 11,000  Level Orlando TRACON
07:36AM 28.0167 -81.1333 350° North 282 325 11,000 -1,080 Level Orlando TRACON
07:37AM 28.1000 -81.1333 360° North 314 361 8,800 -2,280 Descending Orlando TRACON
07:38AM 28.1667 -81.1500 348° North 289 333 6,500 -2,400 Descending Orlando TRACON
07:39AM 28.2000 -81.2167 300° West 261 300 4,300 -1,680 Descending Orlando TRACON
07:40AM 28.2167 -81.3000 283° West 246 283 3,200 -780 Descending Orlando TRACON
07:41AM 28.2667 -81.3167 344° North 210 242 2,900 -360 Descending Orlando TRACON